Adel, Georgia
Current Conditions -  °F | °C
As of 11:58 AM on Thursday 30 Oct 2014 (Local Time) from KVAD Reporting Station
Overcast Overcast  
Wind Chill: 64°   Ceiling: 4400
Heat Index: 64°   Visibility: 10mi
Dew Point: 47°   Wind: 3mph
Humidity: 56%   Direction: 360°N
Pressure: 30.02"   Gusts: NA
Location:  31.14°N, 83.42°W
Report Text: KVAD 301558Z AUTO 36003KT 10SM BKN044 OVC080 18/09 A3002 RMK AO2 SLP167 T01750086 $
Loading
Personal Weather Stations






























Interactive Weather Map
Tropical Storm Tracking
New forecast layout! Learn more

10-Day Weather Forecast

Advertisements
Track Severe Weather on mobile